createdAt,value
2018-08-09T00:00:05.246Z,961.2
2018-08-09T00:15:04.990Z,961.42
2018-08-09T00:30:10.432Z,961.86
2018-08-09T00:45:04.842Z,962.05
2018-08-09T01:00:04.917Z,961.92
2018-08-09T01:15:05.043Z,962.05
2018-08-09T01:30:05.072Z,962.3
2018-08-09T01:45:10.223Z,962.39
2018-08-09T02:00:04.753Z,962.72
2018-08-09T02:15:05.400Z,962.55
2018-08-09T02:30:05.203Z,962.83
2018-08-09T02:45:05.710Z,963.05
2018-08-09T03:00:04.750Z,963.13
2018-08-09T03:15:05.712Z,963.27
2018-08-09T03:30:05.057Z,963.13
2018-08-09T03:45:04.733Z,963.24
2018-08-09T04:00:05.161Z,963.35
2018-08-09T04:15:15.708Z,963.77
2018-08-09T04:30:04.745Z,964.24
2018-08-09T04:45:04.697Z,963.44
2018-08-09T05:00:04.667Z,963.35
2018-08-09T05:15:05.102Z,963.27
2018-08-09T05:30:05.646Z,962.86
2018-08-09T05:45:05.181Z,962.99
2018-08-09T06:00:05.165Z,962.86
2018-08-09T06:15:05.141Z,962.66
2018-08-09T06:30:05.168Z,962.28
2018-08-09T06:45:05.089Z,961.72
2018-08-09T07:00:05.325Z,960.86
2018-08-09T07:15:05.289Z,959.92
2018-08-09T07:30:04.458Z,958.29
2018-08-09T07:45:04.854Z,957.35
2018-08-09T08:00:10.390Z,962.17
2018-08-09T08:15:05.456Z,960.76
2018-08-09T08:30:05.159Z,962.84
2018-08-09T08:45:04.509Z,961.48
2018-08-09T09:00:05.216Z,960.97
2018-08-09T09:15:04.671Z,962.39
2018-08-09T09:30:04.809Z,961.42
2018-08-09T09:45:04.693Z,961.35
2018-08-09T10:00:05.370Z,955.57
2018-08-09T10:15:05.372Z,956.29
2018-08-09T10:30:05.079Z,956.65
2018-08-09T10:45:04.425Z,956.9
2018-08-09T11:00:04.387Z,956.9
2018-08-09T11:15:05.237Z,957.49
2018-08-09T11:30:05.201Z,957.83
2018-08-09T11:45:05.169Z,959.05
2018-08-09T12:00:05.028Z,959.14
2018-08-09T12:15:05.251Z,959.86
2018-08-09T12:30:05.143Z,959.78
2018-08-09T12:45:05.129Z,960.5
2018-08-09T13:00:10.446Z,961.64
2018-08-09T13:15:04.455Z,962.17
2018-08-09T13:30:05.048Z,961.84
2018-08-09T13:45:04.466Z,962.51
2018-08-09T14:00:04.878Z,963.01
2018-08-09T14:15:05.338Z,963.43
2018-08-09T14:30:06.072Z,962.62
2018-08-09T14:45:04.892Z,963.4
2018-08-09T15:00:05.026Z,964.27
2018-08-09T15:15:05.147Z,966.53
2018-08-09T15:30:05.232Z,961.5
2018-08-09T15:45:04.829Z,961.11
2018-08-09T16:00:04.787Z,963.24
2018-08-09T16:15:05.560Z,964.13
2018-08-09T16:30:05.002Z,963.16
2018-08-09T16:45:04.615Z,963.77
2018-08-09T17:00:04.584Z,964.52
2018-08-09T17:15:05.193Z,963.85
2018-08-09T17:30:05.930Z,964.24
2018-08-09T17:45:05.217Z,964.18
2018-08-09T18:00:05.200Z,964.29
2018-08-09T18:15:04.742Z,964.21
2018-08-09T18:30:04.521Z,964.05
2018-08-09T18:45:04.908Z,964.41
2018-08-09T19:00:09.437Z,964.43
2018-08-09T19:15:04.858Z,964.82
2018-08-09T19:30:05.225Z,965.35
2018-08-09T19:45:09.634Z,965.51
2018-08-09T20:00:04.843Z,965.73
2018-08-09T20:15:17.734Z,965.9
2018-08-09T20:30:05.066Z,966.18
2018-08-09T20:45:04.761Z,966.51
2018-08-09T21:00:05.156Z,966.95
2018-08-09T21:15:05.455Z,967.39
2018-08-09T21:30:04.753Z,967.59
2018-08-09T21:45:11.563Z,967.75
2018-08-09T22:00:05.267Z,967.95
2018-08-09T22:15:05.031Z,967.95
2018-08-09T22:30:05.415Z,968.31
2018-08-09T22:45:05.023Z,968.61
2018-08-09T23:00:05.147Z,968.61
2018-08-09T23:15:05.246Z,968.8
2018-08-09T23:30:04.951Z,969.77
2018-08-09T23:45:04.697Z,969.47
